BAW575 LIML-EGLL
Flight info
| Callsign | BAW575 |
|---|---|
| Flight time | N/A |
| Altitude | 34000 |
| Route | PEPAG N851 UTAVO DCT ELMUR DCT RIPUS L613 HOC DCT LUL DCT RLP DCT ROTSI DCT KOTUN DCT NINAL DCT ABNUR DCT DIMAL DCT ALESO |
| Aircraft | A320/M-SDE3FGHIRWY/LB1 |
Departure
| Time | 2026-05-01 13:55 |
|---|---|
| Airport | Milano Linate Airport (LIML) |
Arrival
| Time | N/A |
|---|---|
| Airport | London Heathrow Airport (EGLL) |
| Time | Latitude | Longitude | Altitude | Speed | Heading |
|---|---|---|---|---|---|
| 2026-05-01 13:38 | 45.45808 | 9.28075 | 360 ft | 0 kts | 90° |
| 2026-05-01 13:47 | 45.45808 | 9.28076 | 360 ft | 1 kts | 90° |
| 2026-05-01 13:47 | 45.45808 | 9.28090 | 360 ft | 1 kts | 90° |
| 2026-05-01 13:48 | 45.45808 | 9.28115 | 360 ft | 4 kts | 90° |
| 2026-05-01 13:48 | 45.45796 | 9.28152 | 360 ft | 5 kts | 144° |
| 2026-05-01 13:48 | 45.45757 | 9.28160 | 360 ft | 7 kts | 179° |
| 2026-05-01 13:48 | 45.45705 | 9.28161 | 360 ft | 8 kts | 180° |
| 2026-05-01 13:49 | 45.45641 | 9.28160 | 361 ft | 10 kts | 181° |
| 2026-05-01 13:49 | 45.45592 | 9.28158 | 364 ft | 11 kts | 181° |
| 2026-05-01 13:49 | 45.45508 | 9.28155 | 360 ft | 13 kts | 181° |
| 2026-05-01 13:49 | 45.45378 | 9.28148 | 360 ft | 15 kts | 188° |
| 2026-05-01 13:50 | 45.45310 | 9.28107 | 362 ft | 16 kts | 206° |
| 2026-05-01 13:50 | 45.45165 | 9.28049 | 366 ft | 17 kts | 173° |
| 2026-05-01 13:50 | 45.45039 | 9.28064 | 360 ft | 19 kts | 175° |
| 2026-05-01 13:50 | 45.44946 | 9.27999 | 363 ft | 16 kts | 245° |
| 2026-05-01 13:51 | 45.44863 | 9.27932 | 360 ft | 16 kts | 169° |
| 2026-05-01 13:51 | 45.44784 | 9.27946 | 364 ft | 17 kts | 176° |
| 2026-05-01 13:51 | 45.44658 | 9.27960 | 360 ft | 19 kts | 175° |
| 2026-05-01 13:51 | 45.44519 | 9.27974 | 362 ft | 21 kts | 176° |
| 2026-05-01 13:52 | 45.44366 | 9.27990 | 360 ft | 23 kts | 176° |
| 2026-05-01 13:52 | 45.44201 | 9.28007 | 360 ft | 25 kts | 176° |
| 2026-05-01 13:52 | 45.44023 | 9.28026 | 364 ft | 27 kts | 175° |
| 2026-05-01 13:52 | 45.43833 | 9.28049 | 363 ft | 28 kts | 175° |
| 2026-05-01 13:53 | 45.43634 | 9.28069 | 364 ft | 27 kts | 176° |
| 2026-05-01 13:53 | 45.43463 | 9.28085 | 360 ft | 8 kts | 194° |
| 2026-05-01 13:53 | 45.43443 | 9.28010 | 361 ft | 9 kts | 265° |
| 2026-05-01 13:54 | 45.43437 | 9.27908 | 361 ft | 11 kts | 265° |
| 2026-05-01 13:54 | 45.43463 | 9.27820 | 362 ft | 10 kts | 330° |
| 2026-05-01 13:54 | 45.43534 | 9.27808 | 363 ft | 0 kts | 355° |
| 2026-05-01 13:54 | 45.43540 | 9.27807 | 361 ft | 7 kts | 355° |
| 2026-05-01 13:55 | 45.43798 | 9.27782 | 360 ft | 78 kts | 356° |
| 2026-05-01 13:55 | 45.44594 | 9.27700 | 367 ft | 146 kts | 356° |
| 2026-05-01 13:55 | 45.45698 | 9.27599 | 811 ft | 163 kts | 357° |
| 2026-05-01 13:55 | 45.46821 | 9.27278 | 1594 ft | 169 kts | 342° |
| 2026-05-01 13:56 | 45.47968 | 9.26740 | 1947 ft | 183 kts | 342° |
| 2026-05-01 13:56 | 45.49260 | 9.26124 | 2194 ft | 207 kts | 342° |
| 2026-05-01 13:56 | 45.50705 | 9.25434 | 2499 ft | 232 kts | 341° |
| 2026-05-01 13:56 | 45.52310 | 9.24638 | 2937 ft | 254 kts | 340° |
| 2026-05-01 13:57 | 45.54000 | 9.23757 | 3733 ft | 262 kts | 340° |
| 2026-05-01 13:57 | 45.55708 | 9.22809 | 4635 ft | 265 kts | 342° |
| 2026-05-01 13:57 | 45.57495 | 9.22096 | 5528 ft | 268 kts | 347° |
| 2026-05-01 13:57 | 45.59334 | 9.21536 | 6349 ft | 273 kts | 349° |
| 2026-05-01 13:58 | 45.61220 | 9.21013 | 7128 ft | 279 kts | 349° |
| 2026-05-01 13:58 | 45.63135 | 9.20473 | 7948 ft | 281 kts | 349° |
| 2026-05-01 13:58 | 45.65060 | 9.19907 | 8780 ft | 284 kts | 348° |
| 2026-05-01 13:58 | 45.66999 | 9.19315 | 9605 ft | 286 kts | 348° |
| 2026-05-01 13:59 | 45.68950 | 9.18700 | 10402 ft | 288 kts | 348° |
| 2026-05-01 13:59 | 45.70944 | 9.18027 | 10833 ft | 305 kts | 347° |
| 2026-05-01 13:59 | 45.73073 | 9.17263 | 11017 ft | 327 kts | 346° |
| 2026-05-01 13:59 | 45.75321 | 9.16437 | 11481 ft | 338 kts | 346° |
| 2026-05-01 14:00 | 45.77604 | 9.15597 | 12103 ft | 342 kts | 347° |
| 2026-05-01 14:00 | 45.79929 | 9.14745 | 12794 ft | 345 kts | 347° |
| 2026-05-01 14:00 | 45.82269 | 9.13893 | 13494 ft | 348 kts | 347° |
| 2026-05-01 14:00 | 45.84626 | 9.13041 | 14163 ft | 352 kts | 347° |
| 2026-05-01 14:01 | 45.87005 | 9.12129 | 14770 ft | 355 kts | 346° |
| 2026-05-01 14:01 | 45.89384 | 9.11134 | 15374 ft | 357 kts | 345° |
| 2026-05-01 14:01 | 45.91771 | 9.10088 | 15957 ft | 361 kts | 345° |
| 2026-05-01 14:01 | 45.94182 | 9.09011 | 16558 ft | 364 kts | 345° |
| 2026-05-01 14:02 | 45.96607 | 9.07931 | 17177 ft | 367 kts | 345° |
| 2026-05-01 14:02 | 45.99085 | 9.07026 | 17753 ft | 368 kts | 353° |
| 2026-05-01 14:02 | 46.01626 | 9.06591 | 18371 ft | 370 kts | 355° |
| 2026-05-01 14:02 | 46.04204 | 9.06185 | 18933 ft | 373 kts | 355° |
| 2026-05-01 14:03 | 46.06786 | 9.05781 | 19473 ft | 375 kts | 355° |
| 2026-05-01 14:03 | 46.09391 | 9.05367 | 20043 ft | 378 kts | 355° |
| 2026-05-01 14:03 | 46.12011 | 9.04946 | 20609 ft | 380 kts | 355° |
| 2026-05-01 14:03 | 46.14648 | 9.04517 | 21178 ft | 382 kts | 355° |
| 2026-05-01 14:04 | 46.17297 | 9.04087 | 21724 ft | 384 kts | 355° |
| 2026-05-01 14:04 | 46.19968 | 9.03698 | 22242 ft | 387 kts | 356° |
| 2026-05-01 14:04 | 46.22659 | 9.03339 | 22762 ft | 389 kts | 356° |
| 2026-05-01 14:04 | 46.25366 | 9.02989 | 23272 ft | 392 kts | 356° |
| 2026-05-01 14:05 | 46.28091 | 9.02638 | 23822 ft | 394 kts | 356° |
| 2026-05-01 14:05 | 46.30831 | 9.02281 | 24283 ft | 396 kts | 356° |
| 2026-05-01 14:05 | 46.33587 | 9.01920 | 24657 ft | 399 kts | 356° |
| 2026-05-01 14:05 | 46.36365 | 9.01551 | 25057 ft | 402 kts | 355° |
| 2026-05-01 14:06 | 46.39154 | 9.01177 | 25437 ft | 404 kts | 355° |
| 2026-05-01 14:06 | 46.41966 | 9.00798 | 25813 ft | 407 kts | 355° |
| 2026-05-01 14:06 | 46.44792 | 9.00420 | 26166 ft | 409 kts | 355° |
| 2026-05-01 14:06 | 46.47638 | 9.00043 | 26532 ft | 412 kts | 355° |
| 2026-05-01 14:07 | 46.50496 | 8.99663 | 26864 ft | 414 kts | 355° |
| 2026-05-01 14:07 | 46.53374 | 8.99273 | 27221 ft | 416 kts | 355° |
| 2026-05-01 14:07 | 46.56263 | 8.98878 | 27588 ft | 418 kts | 355° |
| 2026-05-01 14:08 | 46.62088 | 8.98081 | 28291 ft | 423 kts | 355° |
| 2026-05-01 14:08 | 46.65022 | 8.97683 | 28634 ft | 425 kts | 355° |
| 2026-05-01 14:08 | 46.67976 | 8.97286 | 28986 ft | 427 kts | 356° |
| 2026-05-01 14:08 | 46.70944 | 8.96889 | 29284 ft | 429 kts | 355° |
| 2026-05-01 14:09 | 46.73927 | 8.96485 | 29603 ft | 432 kts | 355° |
| 2026-05-01 14:09 | 46.76926 | 8.96075 | 29950 ft | 433 kts | 355° |
| 2026-05-01 14:09 | 46.79920 | 8.95664 | 30420 ft | 432 kts | 355° |
| 2026-05-01 14:09 | 46.82908 | 8.95259 | 30819 ft | 431 kts | 355° |
| 2026-05-01 14:10 | 46.85891 | 8.94856 | 31234 ft | 430 kts | 355° |
| 2026-05-01 14:10 | 46.88871 | 8.94452 | 31639 ft | 429 kts | 355° |
| 2026-05-01 14:10 | 46.91842 | 8.94045 | 32036 ft | 428 kts | 355° |
| 2026-05-01 14:10 | 46.94807 | 8.93636 | 32430 ft | 428 kts | 355° |
| 2026-05-01 14:11 | 46.97772 | 8.93230 | 32827 ft | 427 kts | 355° |
| 2026-05-01 14:11 | 47.03680 | 8.92408 | 33626 ft | 426 kts | 355° |
| 2026-05-01 14:11 | 47.06639 | 8.91996 | 34022 ft | 426 kts | 355° |
| 2026-05-01 14:12 | 47.09555 | 8.91246 | 34269 ft | 427 kts | 343° |
| 2026-05-01 14:12 | 47.12313 | 8.89588 | 34303 ft | 432 kts | 331° |
| 2026-05-01 14:12 | 47.14778 | 8.87052 | 34300 ft | 434 kts | 319° |
| 2026-05-01 14:12 | 47.16836 | 8.83799 | 34305 ft | 437 kts | 307° |
| 2026-05-01 14:13 | 47.18391 | 8.79978 | 34300 ft | 439 kts | 295° |
| 2026-05-01 14:13 | 47.19144 | 8.77207 | 34304 ft | 440 kts | 291° |
| 2026-05-01 14:13 | 47.21649 | 8.67354 | 34302 ft | 440 kts | 291° |
| 2026-05-01 14:14 | 47.23787 | 8.58907 | 34446 ft | 442 kts | 291° |
| 2026-05-01 14:14 | 47.24855 | 8.54663 | 34686 ft | 442 kts | 291° |
| 2026-05-01 14:14 | 47.25924 | 8.50417 | 34922 ft | 442 kts | 291° |
| 2026-05-01 14:15 | 47.26993 | 8.46168 | 35059 ft | 442 kts | 291° |
| 2026-05-01 14:15 | 47.28063 | 8.41924 | 35100 ft | 442 kts | 291° |
| 2026-05-01 14:15 | 47.30199 | 8.33454 | 35079 ft | 441 kts | 291° |
| 2026-05-01 14:16 | 47.32315 | 8.24973 | 35078 ft | 441 kts | 291° |